createdAt,value
2022-11-25T19:10:37.576Z,5.43
2022-11-25T19:13:28.270Z,5.57
2022-11-25T19:16:17.661Z,6.33
2022-11-25T19:19:20.349Z,5.77
2022-11-25T19:22:11.162Z,6.57
2022-11-25T19:24:58.522Z,6.17
2022-11-25T19:27:50.876Z,6.50
2022-11-25T19:30:38.069Z,6.67
2022-11-25T19:33:53.720Z,6.40
2022-11-25T19:36:46.526Z,7.10
2022-11-25T19:39:36.132Z,6.97
2022-11-25T19:42:24.955Z,6.60
2022-11-25T19:45:14.991Z,7.10
2022-11-25T19:48:06.893Z,6.17
2022-11-25T19:58:58.022Z,6.77
2022-11-25T20:02:14.493Z,5.70
2022-11-25T20:05:09.693Z,6.97
2022-11-25T20:07:59.332Z,6.37
2022-11-25T20:10:46.550Z,7.10
2022-11-25T20:13:33.934Z,7.70
2022-11-25T20:16:24.638Z,7.60
2022-11-25T20:19:17.017Z,7.10
2022-11-25T20:22:04.598Z,6.87
2022-11-25T20:24:54.847Z,7.70
2022-11-25T20:27:41.982Z,7.17
2022-11-25T20:30:58.246Z,7.93
2022-11-25T20:33:47.776Z,7.60
2022-11-25T20:36:40.694Z,8.40
2022-11-25T20:39:27.569Z,8.10
2022-11-25T20:52:38.611Z,8.33
2022-11-25T20:55:26.520Z,10.93
2022-11-25T20:58:20.102Z,11.43
2022-11-25T21:01:07.024Z,9.50
2022-11-25T21:03:53.881Z,11.73
2022-11-25T21:06:41.250Z,11.00
2022-11-25T21:09:32.659Z,10.10
2022-11-25T21:12:19.869Z,10.30
2022-11-25T21:15:12.871Z,9.97
2022-11-25T21:17:59.733Z,11.03
2022-11-25T21:20:48.120Z,12.40
2022-11-25T21:24:13.668Z,11.20
2022-11-25T21:27:09.990Z,11.20
2022-11-25T21:30:14.524Z,10.30
2022-11-25T21:33:01.832Z,10.10
2022-11-25T21:35:50.075Z,10.53
2022-11-25T21:38:45.967Z,10.90
2022-11-25T21:41:30.885Z,9.73
2022-11-25T21:44:26.382Z,10.00
2022-11-25T21:47:15.254Z,10.87
2022-11-25T21:50:03.239Z,10.80
2022-11-25T21:52:50.334Z,12.07
2022-11-25T21:55:37.562Z,10.20
2022-11-25T21:58:28.036Z,10.67
2022-11-25T22:01:16.918Z,12.37
2022-11-25T22:04:04.254Z,11.50
2022-11-25T22:06:51.309Z,12.03
2022-11-25T22:09:38.614Z,12.50
2022-11-25T22:12:28.908Z,13.77
2022-11-25T22:15:18.646Z,12.57
2022-11-25T22:18:17.255Z,13.00
2022-11-25T22:21:04.484Z,12.03
2022-11-25T22:23:51.400Z,11.97
2022-11-25T22:26:38.365Z,11.13
2022-11-25T22:29:32.717Z,10.57
2022-11-25T22:32:19.774Z,9.43
2022-11-25T22:35:14.115Z,10.70
2022-11-25T22:38:01.590Z,10.67
2022-11-25T22:40:51.726Z,10.73
2022-11-25T22:43:45.380Z,10.40
2022-11-25T22:46:35.885Z,9.83
2022-11-25T22:49:30.711Z,10.07
2022-11-25T22:52:21.121Z,10.33
2022-11-25T22:55:16.881Z,10.83
2022-11-25T22:58:04.044Z,10.47
2022-11-25T23:00:51.937Z,9.27
2022-11-25T23:03:38.858Z,11.30
2022-11-25T23:06:26.571Z,10.23
2022-11-25T23:09:16.141Z,10.07
2022-11-25T23:12:03.381Z,9.70
2022-11-25T23:14:50.229Z,10.73
2022-11-25T23:17:37.077Z,11.27
2022-11-25T23:20:28.302Z,11.10
2022-11-25T23:23:18.132Z,10.83
2022-11-25T23:26:09.247Z,10.27
2022-11-25T23:28:56.095Z,10.37
2022-11-25T23:31:43.113Z,10.90
2022-11-25T23:34:30.190Z,10.53
2022-11-25T23:37:25.786Z,11.50
2022-11-25T23:40:19.186Z,11.10
2022-11-25T23:43:11.479Z,10.53
2022-11-25T23:45:58.447Z,11.90
2022-11-25T23:48:51.035Z,11.93
2022-11-25T23:51:37.914Z,10.57
2022-11-25T23:54:39.494Z,11.60
2022-11-25T23:57:31.563Z,12.27
